Time;durP1;ratioP1;P1;durP2;ratioP2;P2;SDS_P1;SDS_P2;PMS_P1;PMS_P2;Temp;Humidity;BMP_temperature;BMP_pressure;BME280_temperature;BME280_humidity;BME280_pressure;Samples;Min_cycle;Max_cycle;Signal;HPM_P1;HPM_P2
2022/07/12 00:01:32;;;;;;;4.70;1.85;;;;;;;;;;5014456;28;20554;-66
2022/07/12 00:03:58;;;;;;;7.63;2.60;;;;;;;;;;5014361;28;20033;-66
2022/07/12 00:06:24;;;;;;;6.57;2.42;;;;;;;;;;5014373;28;20021;-66
2022/07/12 00:08:50;;;;;;;6.10;2.45;;;;;;;;;;5013151;28;20076;-66
2022/07/12 00:11:15;;;;;;;5.43;2.20;;;14.20;62.90;;;;;;5014342;28;20391;-66
2022/07/12 00:13:41;;;;;;;6.88;3.10;;;14.10;63.20;;;;;;5014222;28;20080;-65
2022/07/12 00:16:07;;;;;;;5.10;2.25;;;14.10;64.50;;;;;;5014216;28;20029;-65
2022/07/12 00:18:33;;;;;;;5.50;2.22;;;14.00;63.80;;;;;;5013687;28;20018;-66
2022/07/12 00:20:58;;;;;;;2.63;2.13;;;14.10;64.40;;;;;;5014039;28;20030;-66
2022/07/12 00:23:24;;;;;;;5.05;2.20;;;14.10;63.90;;;;;;5012232;28;20036;-66
2022/07/12 00:25:50;;;;;;;5.32;2.40;;;14.10;64.50;;;;;;5013823;28;20504;-67
2022/07/12 00:28:15;;;;;;;8.13;3.20;;;14.00;64.10;;;;;;5013957;28;20053;-67
2022/07/12 00:30:41;;;;;;;4.75;2.58;;;14.00;64.70;;;;;;5013782;28;20044;-67
2022/07/12 00:33:07;;;;;;;5.00;2.50;;;14.00;64.90;;;;;;5013932;28;20076;-67
2022/07/12 00:35:33;;;;;;;4.35;2.92;;;14.10;65.00;;;;;;5013976;28;20034;-64
2022/07/12 00:37:58;;;;;;;7.32;3.25;;;14.00;65.20;;;;;;5013497;28;20480;-65
2022/07/12 00:40:24;;;;;;;4.55;3.47;;;14.10;65.70;;;;;;5013553;28;20451;-66
2022/07/12 00:42:49;;;;;;;7.47;3.55;;;14.10;65.50;;;;;;5013579;28;20029;-66
2022/07/12 00:45:15;;;;;;;8.80;3.22;;;14.20;66.00;;;;;;5013377;28;20026;-66
2022/07/12 00:47:44;;;;;;;5.30;3.25;;;14.30;65.70;;;;;;5013340;28;20087;-66
2022/07/12 00:50:14;;;;;;;5.80;3.38;;;14.30;65.80;;;;;;5013635;28;20022;-66
2022/07/12 00:52:41;;;;;;;8.82;3.25;;;14.30;66.30;;;;;;5013500;28;20022;-66
2022/07/12 00:55:08;;;;;;;6.68;3.17;;;14.20;66.50;;;;;;5013388;28;20037;-67
2022/07/12 00:57:35;;;;;;;4.72;2.88;;;14.20;67.10;;;;;;5013068;28;20400;-66
2022/07/12 01:00:01;;;;;;;4.90;3.00;;;14.10;67.50;;;;;;5011924;28;20400;-66
2022/07/12 01:02:28;;;;;;;4.75;2.75;;;14.20;67.40;;;;;;5013337;28;20097;-66
2022/07/12 01:04:55;;;;;;;6.22;2.55;;;14.20;67.60;;;;;;5011924;28;20046;-66
2022/07/12 01:07:24;;;;;;;5.65;2.83;;;14.10;68.20;;;;;;5011532;28;20026;-66
2022/07/12 01:09:50;;;;;;;3.63;2.58;;;14.10;68.50;;;;;;5013056;28;20021;-66
2022/07/12 01:12:17;;;;;;;3.45;2.00;;;14.10;69.20;;;;;;5013040;28;20018;-66
2022/07/12 01:14:44;;;;;;;6.30;2.28;;;14.10;69.40;;;;;;5012960;28;20391;-66
2022/07/12 01:17:10;;;;;;;4.97;2.50;;;14.10;69.80;;;;;;5012713;28;20496;-66
2022/07/12 01:19:37;;;;;;;5.78;2.03;;;14.10;70.10;;;;;;5012661;28;20038;-65
2022/07/12 01:22:09;;;;;;;4.88;1.92;;;14.20;70.50;;;;;;5010480;28;20484;-66
2022/07/12 01:24:34;;;;;;;3.47;1.80;;;14.40;70.00;;;;;;5012885;28;20026;-67
2022/07/12 01:27:04;;;;;;;3.60;1.98;;;14.50;69.90;;;;;;5012630;28;20018;-66
2022/07/12 01:29:30;;;;;;;4.30;1.98;;;14.50;70.00;;;;;;5012615;28;20049;-67
2022/07/12 01:32:24;;;;;;;5.25;1.55;;;14.60;70.00;;;;;;5012821;28;20109;-66
2022/07/12 01:34:42;;;;;;;2.85;1.60;;;14.70;69.80;;;;;;5012590;28;20404;-67
2022/07/12 01:37:11;;;;;;;2.17;1.52;;;14.80;69.80;;;;;;5012368;28;20036;-67
2022/07/12 01:39:37;;;;;;;3.42;1.95;;;14.90;69.80;;;;;;5012480;28;20026;-67
2022/07/12 01:42:03;;;;;;;2.40;1.85;;;14.90;70.10;;;;;;5012639;28;20032;-67
2022/07/12 01:44:29;;;;;;;3.70;2.53;;;15.00;69.90;;;;;;5012566;28;20033;-67
2022/07/12 01:46:54;;;;;;;4.13;2.25;;;15.00;70.50;;;;;;5012661;28;20022;-66
2022/07/12 01:49:20;;;;;;;5.30;2.20;;;14.80;70.80;;;;;;5012130;28;20041;-65
2022/07/12 01:51:46;;;;;;;7.43;2.53;;;14.80;71.30;;;;;;5012367;28;20026;-66
2022/07/12 01:54:11;;;;;;;3.50;2.05;;;14.70;71.80;;;;;;5012508;28;20026;-66
2022/07/12 01:56:37;;;;;;;4.25;2.50;;;14.70;72.40;;;;;;5012637;28;20483;-66
2022/07/12 01:59:02;;;;;;;8.00;2.67;;;14.80;73.00;;;;;;5012517;28;20034;-67
2022/07/12 02:01:29;;;;;;;3.20;2.60;;;14.90;72.90;;;;;;5012758;28;20058;-66
2022/07/12 02:03:54;;;;;;;3.15;2.38;;;14.90;73.10;;;;;;5012584;28;20036;-66
2022/07/12 02:06:20;;;;;;;5.53;3.10;;;15.00;73.50;;;;;;5012686;28;20109;-67
2022/07/12 02:08:46;;;;;;;4.20;2.75;;;15.00;73.70;;;;;;5011294;28;20030;-66
2022/07/12 02:11:11;;;;;;;3.25;2.63;;;15.00;74.00;;;;;;5012779;28;20030;-66
2022/07/12 02:13:37;;;;;;;4.20;2.80;;;15.00;74.20;;;;;;5013227;28;20030;-67
2022/07/12 02:16:04;;;;;;;5.20;2.60;;;15.00;75.00;;;;;;5013673;28;20022;-67
2022/07/12 02:18:32;;;;;;;4.55;2.90;;;15.10;74.80;;;;;;5013202;28;20037;-66
2022/07/12 02:20:58;;;;;;;6.00;2.58;;;15.10;74.90;;;;;;5012998;28;20057;-66
2022/07/12 02:23:23;;;;;;;4.82;2.50;;;15.20;75.00;;;;;;5012889;28;20050;-66
2022/07/12 02:25:49;;;;;;;3.80;2.63;;;15.30;75.00;;;;;;5012964;28;20472;-66
2022/07/12 02:28:15;;;;;;;3.85;2.38;;;15.30;75.70;;;;;;5012453;28;20032;-66
2022/07/12 02:30:41;;;;;;;3.75;2.80;;;15.30;76.20;;;;;;5012838;28;20100;-67
2022/07/12 02:33:06;;;;;;;2.42;2.13;;;15.30;76.70;;;;;;5016693;28;20026;-66
2022/07/12 02:35:32;;;;;;;3.13;2.47;;;15.20;77.00;;;;;;5017885;28;20026;-66
2022/07/12 02:37:57;;;;;;;4.05;2.60;;;15.30;77.10;;;;;;5016113;28;20030;-65
2022/07/12 02:43:07;;;;;;;3.10;2.80;;;15.10;78.10;;;;;;5016054;28;20113;-65
2022/07/12 02:45:33;;;;;;;5.25;2.35;;;15.10;78.30;;;;;;5015726;28;20109;-65
2022/07/12 02:47:58;;;;;;;2.92;2.65;;;15.00;78.30;;;;;;5015520;28;20044;-66
2022/07/12 02:50:24;;;;;;;3.95;3.33;;;15.00;78.30;;;;;;5015937;28;20022;-65
2022/07/12 02:52:49;;;;;;;4.68;3.22;;;14.90;78.70;;;;;;5015922;28;20022;-66
2022/07/12 02:55:15;;;;;;;8.68;3.58;;;14.90;79.10;;;;;;5015760;28;20522;-66
2022/07/12 02:57:41;;;;;;;7.32;3.33;;;14.90;79.60;;;;;;5015321;28;20022;-66
2022/07/12 03:00:07;;;;;;;6.13;2.88;;;14.90;79.90;;;;;;5014021;28;20025;-66
2022/07/12 03:02:33;;;;;;;6.03;3.17;;;14.90;80.10;;;;;;5015398;28;20037;-66
2022/07/12 03:04:58;;;;;;;8.00;3.25;;;14.80;80.00;;;;;;5015267;28;20404;-65
2022/07/12 03:07:24;;;;;;;4.20;3.28;;;14.90;80.20;;;;;;5015052;28;20061;-66
2022/07/12 03:09:49;;;;;;;5.15;3.28;;;14.90;80.30;;;;;;5015167;28;20512;-66
2022/07/12 03:12:15;;;;;;;4.82;2.80;;;14.80;80.60;;;;;;5015148;28;20018;-67
2022/07/12 03:14:41;;;;;;;3.40;2.88;;;14.70;80.70;;;;;;5015272;28;20025;-67
2022/07/12 03:17:07;;;;;;;3.67;3.20;;;14.70;80.80;;;;;;5014867;28;20053;-65
2022/07/12 03:19:33;;;;;;;3.17;2.90;;;14.70;81.00;;;;;;5014862;28;20116;-66
2022/07/12 03:21:58;;;;;;;4.40;3.30;;;14.70;81.10;;;;;;5015012;28;20026;-66
2022/07/12 03:24:24;;;;;;;5.40;3.60;;;14.70;81.20;;;;;;5014900;28;20033;-67
2022/07/12 03:26:51;;;;;;;6.45;3.40;;;14.80;81.20;;;;;;5014875;28;20033;-66
2022/07/12 03:29:16;;;;;;;4.50;3.45;;;14.70;81.20;;;;;;5014674;28;20112;-66
2022/07/12 03:31:42;;;;;;;3.80;3.40;;;14.80;81.20;;;;;;5013747;28;20060;-67
2022/07/12 03:34:08;;;;;;;4.43;3.42;;;14.80;81.20;;;;;;5014802;28;20494;-66
2022/07/12 03:36:33;;;;;;;6.22;3.80;;;14.80;81.30;;;;;;5013437;28;20030;-67
2022/07/12 03:38:59;;;;;;;5.53;3.72;;;14.70;81.40;;;;;;5014375;28;20100;-66
2022/07/12 03:41:24;;;;;;;4.40;3.78;;;14.80;81.30;;;;;;5014740;28;20025;-68
2022/07/12 03:43:50;;;;;;;5.35;3.47;;;14.80;81.20;;;;;;5013376;28;20029;-66
2022/07/12 03:46:15;;;;;;;6.57;4.82;;;14.80;81.40;;;;;;5014524;28;20057;-67
2022/07/12 03:48:41;;;;;;;4.57;3.80;;;14.90;81.30;;;;;;5014264;28;20024;-68
2022/07/12 03:51:06;;;;;;;5.10;3.90;;;15.00;81.10;;;;;;5014646;28;20021;-66
2022/07/12 03:53:32;;;;;;;4.03;3.50;;;15.00;81.00;;;;;;5013229;28;20026;-66
2022/07/12 03:55:58;;;;;;;5.57;3.58;;;15.00;80.80;;;;;;5014488;28;20030;-67
2022/07/12 03:58:23;;;;;;;5.82;4.05;;;15.10;80.60;;;;;;5013847;28;20474;-67
2022/07/12 04:00:49;;;;;;;5.35;4.20;;;15.10;80.70;;;;;;5014319;28;20026;-67
2022/07/12 04:03:15;;;;;;;6.68;4.35;;;;;;;;;;5014189;28;20026;-68
2022/07/12 04:05:41;;;;;;;6.10;3.92;;;15.40;80.10;;;;;;5013926;28;20057;-65
2022/07/12 04:08:06;;;;;;;5.18;3.83;;;15.50;79.60;;;;;;5013780;28;20026;-67
2022/07/12 04:10:32;;;;;;;4.72;3.97;;;15.60;79.40;;;;;;5014091;28;20026;-67
2022/07/12 04:12:57;;;;;;;9.98;4.20;;;15.70;79.10;;;;;;5013947;28;20077;-67
2022/07/12 04:15:23;;;;;;;5.35;3.97;;;15.70;78.90;;;;;;5012812;28;20108;-67
2022/07/12 04:17:49;;;;;;;8.73;3.83;;;15.70;78.90;;;;;;5012287;28;20030;-66
2022/07/12 04:20:14;;;;;;;5.18;4.03;;;15.70;79.20;;;;;;5028085;23;20100;-66
2022/07/12 04:22:40;;;;;;;4.97;4.45;;;15.70;79.40;;;;;;5013744;28;20022;-68
2022/07/12 04:25:06;;;;;;;5.20;4.57;;;15.60;79.40;;;;;;5012429;28;20069;-68
2022/07/12 04:27:32;;;;;;;4.88;4.38;;;15.60;79.60;;;;;;5013555;28;20079;-68
2022/07/12 04:29:58;;;;;;;8.13;3.97;;;15.60;79.80;;;;;;5013699;28;20431;-68
2022/07/12 04:32:23;;;;;;;5.88;4.25;;;15.60;79.60;;;;;;5013665;28;20416;-67
2022/07/12 04:34:49;;;;;;;6.07;4.10;;;15.70;79.50;;;;;;5013963;28;20084;-68
2022/07/12 04:37:15;;;;;;;6.43;3.80;;;;;;;;;;5013498;28;20053;-68
2022/07/12 04:39:41;;;;;;;5.60;3.28;;;;;;;;;;5013579;28;20498;-68
2022/07/12 04:42:07;;;;;;;5.25;3.72;;;;;;;;;;5013765;28;20034;-69
2022/07/12 04:44:33;;;;;;;4.57;3.55;;;;;;;;;;5013749;28;20030;-67
2022/07/12 04:46:59;;;;;;;4.28;3.13;;;;;;;;;;5012399;28;20231;-67
2022/07/12 04:49:25;;;;;;;6.43;3.45;;;;;;;;;;5013466;28;20105;-68
2022/07/12 04:51:51;;;;;;;5.53;3.17;;;;;;;;;;5012086;28;20025;-68
2022/07/12 04:54:17;;;;;;;7.85;2.60;;;;;;;;;;5013259;28;20045;-68
2022/07/12 04:56:43;;;;;;;6.30;3.13;;;;;;;;;;5012935;28;20022;-68
2022/07/12 04:59:09;;;;;;;4.15;2.70;;;;;;;;;;5012941;28;20026;-68
2022/07/12 05:01:35;;;;;;;4.63;2.55;;;;;;;;;;5013103;28;20022;-67
2022/07/12 05:04:01;;;;;;;5.07;2.33;;;;;;;;;;5012959;28;20028;-67
2022/07/12 05:06:28;;;;;;;6.78;2.70;;;;;;;;;;5013272;28;20391;-67
2022/07/12 05:08:54;;;;;;;4.10;2.53;;;;;;;;;;5012734;28;20045;-69
2022/07/12 05:11:20;;;;;;;3.97;2.42;;;;;;;;;;5012838;28;20396;-68
2022/07/12 05:13:46;;;;;;;2.70;2.13;;;;;;;;;;5012803;28;20026;-68
2022/07/12 05:16:12;;;;;;;3.35;2.45;;;;;;;;;;5012622;28;20022;-68
2022/07/12 05:18:38;;;;;;;2.72;2.30;;;;;;;;;;5012602;28;20026;-69
2022/07/12 05:21:04;;;;;;;1.92;1.80;;;;;;;;;;5012636;28;20408;-69
2022/07/12 05:23:30;;;;;;;4.20;2.67;;;;;;;;;;5012568;28;20557;-67
2022/07/12 05:25:56;;;;;;;4.38;2.47;;;;;;;;;;5012408;28;20025;-68
2022/07/12 05:28:22;;;;;;;2.58;2.38;;;;;;;;;;5010817;28;20156;-68
2022/07/12 05:30:48;;;;;;;2.90;2.58;;;;;;;;;;5012598;28;20029;-68
2022/07/12 05:33:17;;;;;;;4.70;2.80;;;;;;;;;;5012676;28;20088;-68
2022/07/12 05:35:43;;;;;;;5.15;2.60;;;;;;;;;;5012476;28;20471;-68
2022/07/12 05:38:09;;;;;;;2.72;2.53;;;;;;;;;;5013640;28;20057;-69
2022/07/12 05:40:35;;;;;;;7.95;2.83;;;;;;;;;;5013998;28;20028;-69
2022/07/12 05:43:01;;;;;;;6.93;2.60;;;;;;;;;;5021462;28;20105;-68
2022/07/12 05:45:28;;;;;;;2.95;2.55;;;;;;;;;;5019347;28;20025;-68
2022/07/12 05:47:54;;;;;;;7.88;3.03;;;;;;;;;;5028034;28;20079;-69
2022/07/12 05:50:20;;;;;;;6.22;2.45;;;;;;;;;;5031798;28;20022;-68
2022/07/12 05:55:30;;;;;;;2.95;2.58;;;;;;;;;;5031625;28;20079;-68
2022/07/12 05:57:56;;;;;;;7.03;2.38;;;28.70;38.10;;;;;;5025062;28;20026;-68
2022/07/12 06:00:22;;;;;;;5.05;2.83;;;28.50;38.80;;;;;;5012140;28;20044;-68
2022/07/12 06:02:47;;;;;;;8.70;2.80;;;27.70;40.50;;;;;;5012194;28;20018;-67
2022/07/12 06:05:13;;;;;;;2.45;2.25;;;28.40;40.10;;;;;;5012022;28;20041;-67
2022/07/12 06:07:39;;;;;;;3.70;2.28;;;29.10;38.20;;;;;;5011773;28;20033;-69
2022/07/12 06:10:05;;;;;;;4.03;2.42;;;30.10;36.50;;;;;;5012346;28;20534;-68
2022/07/12 06:12:30;;;;;;;4.82;2.63;;;31.00;34.70;;;;;;5010394;28;20109;-68
2022/07/12 06:14:56;;;;;;;5.35;2.30;;;31.70;33.80;;;;;;5011767;28;20153;-69
2022/07/12 06:17:23;;;;;;;3.42;2.30;;;31.50;33.90;;;;;;5011581;28;20109;-68
2022/07/12 06:19:49;;;;;;;2.58;2.13;;;;;;;;;;5011793;28;20066;-68
2022/07/12 06:22:15;;;;;;;4.88;2.22;;;;;;;;;;5009314;28;20033;-68
2022/07/12 06:24:42;;;;;;;3.83;1.77;;;;;;;;;;5007288;28;20037;-68
2022/07/12 06:27:08;;;;;;;6.00;1.98;;;;;;;;;;5009181;28;20129;-72
2022/07/12 06:29:34;;;;;;;20.38;15.77;;;;;;;;;;5008292;28;20022;-75
2022/07/12 06:32:00;;;;;;;47.88;34.95;;;;;;;;;;5010507;28;20056;-73
2022/07/12 06:34:25;;;;;;;32.05;18.73;;;34.00;30.00;;;;;;5009966;28;20058;-74
2022/07/12 06:36:51;;;;;;;12.65;6.22;;;34.50;29.40;;;;;;5010269;28;20026;-73
2022/07/12 06:39:17;;;;;;;3.42;1.88;;;35.00;28.40;;;;;;5009485;28;20026;-73
2022/07/12 06:41:43;;;;;;;26.13;15.02;;;34.70;29.00;;;;;;5011650;28;20026;-73
2022/07/12 06:44:09;;;;;;;8.65;5.03;;;34.70;29.20;;;;;;5010008;28;20030;-74
2022/07/12 06:46:34;;;;;;;9.30;4.90;;;34.70;28.60;;;;;;5010225;28;20030;-74
2022/07/12 06:49:00;;;;;;;4.38;2.67;;;34.60;28.70;;;;;;5010571;28;20030;-74
2022/07/12 06:51:25;;;;;;;11.98;7.68;;;35.50;27.60;;;;;;5011718;28;20029;-74
2022/07/12 06:53:57;;;;;;;9.20;5.53;;;35.40;27.70;;;;;;5011120;28;20057;-74
2022/07/12 06:56:23;;;;;;;7.20;4.38;;;35.70;27.20;;;;;;5011642;28;20209;-74
2022/07/12 06:58:48;;;;;;;15.32;6.00;;;35.20;27.80;;;;;;5010164;28;20094;-74
2022/07/12 07:01:14;;;;;;;4.50;2.67;;;35.00;28.20;;;;;;5010952;28;20049;-73
2022/07/12 07:03:39;;;;;;;31.02;25.17;;;35.20;28.00;;;;;;5011452;28;20452;-72
2022/07/12 07:06:06;;;;;;;29.73;19.98;;;35.20;27.90;;;;;;5011507;28;20029;-74
2022/07/12 07:08:31;;;;;;;6.55;3.63;;;35.60;27.30;;;;;;5010648;28;20210;-74
2022/07/12 07:11:04;;;;;;;11.20;8.00;;;35.90;26.70;;;;;;5011706;28;20460;-70
2022/07/12 07:13:35;;;;;;;8.40;2.75;;;36.00;26.40;;;;;;5013465;28;20403;-71
2022/07/12 07:16:01;;;;;;;16.90;5.40;;;34.50;27.80;;;;;;5013063;28;20033;-72
2022/07/12 07:18:27;;;;;;;4.13;2.15;;;34.70;28.20;;;;;;5020223;28;20041;-71
2022/07/12 07:20:53;;;;;;;10.13;6.05;;;34.70;27.80;;;;;;5019031;28;20128;-71
2022/07/12 07:23:19;;;;;;;4.80;3.22;;;35.10;27.50;;;;;;5017309;28;20502;-71
2022/07/12 07:25:46;;;;;;;7.13;4.32;;;;;;;;;;5041361;28;20499;-70
2022/07/12 07:28:12;;;;;;;5.95;2.22;;;36.00;26.60;;;;;;5020274;28;20026;-72
2022/07/12 07:30:53;;;;;;;3.15;1.40;;;36.20;26.20;;;;;;5017621;28;20057;-73
2022/07/12 07:33:22;;;;;;;;;;;36.20;26.30;;;;;;5015674;28;20486;-72
2022/07/12 07:35:49;;;;;;;10.60;7.32;;;34.90;26.40;;;;;;5019903;28;20299;-73
2022/07/12 07:38:16;;;;;;;3.00;2.25;;;33.90;28.30;;;;;;5015691;28;20507;-73
2022/07/12 07:40:41;;;;;;;13.55;4.63;;;34.70;27.40;;;;;;5014048;28;20559;-74
2022/07/12 07:43:07;;;;;;;9.43;6.63;;;35.00;27.30;;;;;;5023654;28;20112;-73
2022/07/12 07:45:36;;;;;;;10.68;7.13;;;35.50;26.90;;;;;;5034480;28;20476;-74
2022/07/12 07:48:02;;;;;;;4.22;2.65;;;36.00;26.10;;;;;;5015061;28;20022;-74
2022/07/12 07:50:31;;;;;;;9.18;5.53;;;;;;;;;;5013969;28;20022;-75
2022/07/12 07:52:57;;;;;;;4.60;2.58;;;36.40;25.40;;;;;;5014940;28;20018;-74
2022/07/12 07:55:23;;;;;;;8.13;2.20;;;36.00;25.40;;;;;;5017379;28;20017;-74
2022/07/12 07:57:49;;;;;;;9.70;4.78;;;;;;;;;;5033577;28;20112;-73
2022/07/12 08:00:15;;;;;;;9.60;5.35;;;;;;;;;;5034203;28;20025;-73
2022/07/12 08:02:41;;;;;;;2.58;1.90;;;;;;;;;;5034358;28;20029;-72
2022/07/12 08:05:08;;;;;;;7.15;5.22;;;;;;;;;;5033660;28;20021;-72
2022/07/12 08:07:34;;;;;;;13.77;10.30;;;;;;;;;;5031846;28;20092;-72
2022/07/12 08:09:59;;;;;;;18.40;12.68;;;33.20;27.90;;;;;;5012855;28;20029;-73
2022/07/12 08:12:26;;;;;;;12.05;8.65;;;33.00;28.40;;;;;;5013982;28;20022;-72
2022/07/12 08:14:51;;;;;;;4.90;2.45;;;33.20;27.80;;;;;;5013740;28;20033;-72
2022/07/12 08:17:17;;;;;;;4.68;2.00;;;33.20;27.80;;;;;;5013085;28;20036;-71
2022/07/12 08:19:43;;;;;;;2.40;1.60;;;31.80;28.80;;;;;;5011893;28;20030;-72
2022/07/12 08:22:09;;;;;;;8.00;4.70;;;31.40;29.70;;;;;;5012324;28;20034;-73
2022/07/12 08:24:35;;;;;;;1.75;1.17;;;32.00;29.40;;;;;;5013587;28;20123;-75
2022/07/12 08:27:00;;;;;;;8.05;5.95;;;31.50;28.30;;;;;;5012063;28;20110;-72
2022/07/12 08:29:26;;;;;;;3.88;2.58;;;31.00;29.90;;;;;;5012745;28;20064;-72
2022/07/12 08:31:52;;;;;;;6.72;4.95;;;30.40;30.10;;;;;;5012582;28;20500;-72
2022/07/12 08:34:17;;;;;;;2.85;1.45;;;30.20;30.40;;;;;;4994376;28;20026;-72
2022/07/12 08:36:43;;;;;;;4.90;1.50;;;;;;;;;;4994329;28;20029;-72
2022/07/12 08:39:09;;;;;;;7.65;1.85;;;;;;;;;;4998656;28;20061;-73
2022/07/12 08:41:35;;;;;;;6.63;3.05;;;;;;;;;;5011046;28;20033;-74
2022/07/12 08:44:01;;;;;;;7.72;5.57;;;29.90;31.60;;;;;;5013605;28;20029;-72
2022/07/12 08:46:27;;;;;;;5.53;3.65;;;30.30;30.30;;;;;;5013574;28;20396;-72
2022/07/12 08:48:53;;;;;;;5.30;3.30;;;31.20;28.60;;;;;;5012771;28;20078;-71
2022/07/12 08:51:21;;;;;;;7.72;3.00;;;31.90;28.80;;;;;;5012896;28;20203;-71
2022/07/12 08:53:49;;;;;;;5.75;3.47;;;33.10;27.50;;;;;;5013119;28;20109;-71
2022/07/12 08:56:34;;;;;;;4.35;1.05;;;33.90;26.00;;;;;;5013029;28;20392;-71
2022/07/12 08:59:16;;;;;;;7.15;3.03;;;31.70;27.90;;;;;;5011793;28;20021;-73
2022/07/12 09:01:52;;;;;;;6.03;2.53;;;31.50;28.70;;;;;;5013120;28;20026;-74
2022/07/12 09:04:24;;;;;;;4.20;1.88;;;32.50;26.90;;;;;;5012854;28;20124;-72
2022/07/12 09:06:50;;;;;;;1.80;1.20;;;32.80;26.80;;;;;;5011668;28;20054;-72
2022/07/12 09:09:35;;;;;;;4.50;1.58;;;31.90;27.60;;;;;;5012143;28;20034;-72
2022/07/12 09:12:01;;;;;;;2.05;0.95;;;32.10;27.30;;;;;;5012879;28;20030;-72
2022/07/12 09:14:27;;;;;;;5.30;2.38;;;32.50;26.40;;;;;;5012787;28;20076;-71
2022/07/12 09:17:12;;;;;;;5.53;4.53;;;31.90;27.00;;;;;;5012451;28;20026;-73
2022/07/12 09:19:53;;;;;;;10.77;5.72;;;32.00;25.00;;;;;;5012821;28;20034;-71
2022/07/12 09:22:19;;;;;;;2.22;0.50;;;31.70;25.60;;;;;;5013453;28;20361;-75
2022/07/12 09:24:44;;;;;;;2.95;1.00;;;31.70;24.30;;;;;;5012562;28;20079;-73
2022/07/12 09:27:10;;;;;;;14.32;8.60;;;31.50;24.50;;;;;;5012084;28;20026;-75
2022/07/12 09:29:50;;;;;;;9.40;4.03;;;32.00;25.20;;;;;;5011731;28;20106;-74
2022/07/12 09:37:46;;;;;;;6.25;4.05;;;32.20;25.30;;;;;;4994382;28;20037;-75
2022/07/12 09:40:12;;;;;;;11.25;7.45;;;31.00;26.20;;;;;;4993370;28;20026;-78
2022/07/12 09:42:40;;;;;;;9.88;6.05;;;30.70;27.50;;;;;;5009396;28;20033;-75
2022/07/12 09:45:07;;;;;;;9.20;6.18;;;31.10;27.00;;;;;;5013786;28;20037;-75
2022/07/12 09:47:33;;;;;;;4.25;1.70;;;31.20;27.10;;;;;;5011893;28;20034;-76
2022/07/12 09:49:59;;;;;;;9.27;4.85;;;31.90;26.10;;;;;;5012945;28;20080;-76
2022/07/12 09:52:27;;;;;;;5.95;1.30;;;32.60;25.60;;;;;;5012891;28;20018;-75
2022/07/12 09:54:54;;;;;;;1.60;0.77;;;;;;;;;;5012619;28;20571;-74
2022/07/12 09:57:29;;;;;;;4.20;1.85;;;28.60;28.60;;;;;;5011697;28;20495;-76
2022/07/12 09:59:57;;;;;;;5.63;1.98;;;28.50;28.50;;;;;;5012131;28;20040;-74
2022/07/12 10:02:23;;;;;;;9.93;3.95;;;28.00;29.40;;;;;;5012511;28;20092;-76
2022/07/12 10:04:50;;;;;;;26.88;18.42;;;;;;;;;;5010706;28;20041;-74
2022/07/12 10:07:16;;;;;;;11.18;1.38;;;;;;;;;;5011010;28;20054;-71
2022/07/12 10:09:47;;;;;;;19.42;12.55;;;;;;;;;;5009852;28;20021;-70
2022/07/12 10:12:16;;;;;;;8.30;4.57;;;;;;;;;;5009944;28;20017;-70
2022/07/12 10:14:42;;;;;;;2.25;0.80;;;;;;;;;;5026352;28;20048;-71
2022/07/12 10:17:09;;;;;;;9.90;6.57;;;;;;;;;;5029178;28;20049;-71
2022/07/12 10:22:02;;;;;;;7.95;2.35;;;;;;;;;;5006026;22;20050;-71
2022/07/12 10:24:33;;;;;;;3.25;1.20;;;;;;;;;;4990489;28;20057;-71
2022/07/12 10:27:00;;;;;;;7.53;4.60;;;;;;;;;;4990764;28;20029;-69
2022/07/12 10:29:26;;;;;;;8.45;4.80;;;;;;;;;;5005758;28;20026;-71
2022/07/12 10:31:53;;;;;;;1.52;0.77;;;;;;;;;;5007134;28;20026;-71
2022/07/12 10:34:22;;;;;;;2.60;1.40;;;;;;;;;;4992589;28;20105;-71
2022/07/12 10:36:57;;;;;;;4.25;2.65;;;;;;;;;;4991963;28;20046;-71
2022/07/12 10:39:24;;;;;;;2.92;1.50;;;;;;;;;;5006960;28;20038;-71
2022/07/12 10:42:05;;;;;;;2.13;0.68;;;;;;;;;;4992632;28;20110;-71
2022/07/12 10:44:31;;;;;;;;;;;;;;;;;;4992813;28;20053;-71
2022/07/12 10:47:00;;;;;;;2.10;1.25;;;;;;;;;;4980975;28;20400;-70
2022/07/12 10:49:26;;;;;;;2.75;1.05;;;;;;;;;;4972203;28;20023;-70
2022/07/12 10:52:10;;;;;;;9.52;3.75;;;26.70;28.40;;;;;;4971417;28;20038;-71
2022/07/12 10:54:59;;;;;;;5.65;3.03;;;26.10;30.50;;;;;;4991054;28;20033;-71
2022/07/12 10:57:43;;;;;;;2.55;0.50;;;26.50;30.00;;;;;;4975870;28;20027;-71
2022/07/12 11:00:09;;;;;;;2.90;1.77;;;26.60;29.20;;;;;;4980584;28;20034;-71
2022/07/12 11:02:35;;;;;;;3.03;1.20;;;26.80;29.90;;;;;;4995408;28;20049;-69
2022/07/12 11:05:01;;;;;;;5.63;1.92;;;27.00;29.40;;;;;;4995444;28;20031;-71
2022/07/12 11:07:28;;;;;;;5.13;2.97;;;27.20;29.10;;;;;;4994806;28;20030;-71
2022/07/12 11:09:54;;;;;;;3.13;0.70;;;27.50;29.10;;;;;;4993730;28;20053;-70
2022/07/12 11:12:20;;;;;;;1.27;0.70;;;27.70;28.70;;;;;;4995424;28;20063;-70
2022/07/12 11:14:46;;;;;;;6.85;2.50;;;27.80;28.30;;;;;;4995471;28;20022;-70
2022/07/12 11:17:12;;;;;;;2.42;1.30;;;27.50;28.60;;;;;;4994478;28;20058;-70
2022/07/12 11:19:38;;;;;;;5.47;1.75;;;27.30;28.60;;;;;;4995261;28;20413;-70
2022/07/12 11:22:04;;;;;;;3.05;1.08;;;27.40;28.90;;;;;;4995108;28;20034;-71
2022/07/12 11:24:37;;;;;;;1.08;0.45;;;27.60;28.40;;;;;;4995303;28;20037;-71
2022/07/12 11:27:05;;;;;;;3.85;0.60;;;27.00;27.80;;;;;;4994970;28;20018;-70
2022/07/12 11:29:30;;;;;;;5.22;1.90;;;26.70;28.90;;;;;;4995039;28;20072;-71
2022/07/12 11:32:00;;;;;;;1.65;1.10;;;27.00;29.80;;;;;;4994864;28;20110;-71
2022/07/12 11:34:26;;;;;;;3.08;0.60;;;26.90;29.60;;;;;;4994907;28;20113;-71
2022/07/12 11:36:57;;;;;;;2.50;0.40;;;26.90;28.30;;;;;;4994883;28;20026;-71
2022/07/12 11:39:32;;;;;;;4.43;1.50;;;26.80;28.20;;;;;;4994673;28;20038;-70
2022/07/12 11:41:59;;;;;;;5.30;1.90;;;26.70;28.70;;;;;;4994900;28;20023;-71
2022/07/12 11:44:41;;;;;;;2.25;0.52;;;26.70;29.00;;;;;;4994669;28;20038;-70
2022/07/12 11:47:06;;;;;;;3.33;0.68;;;26.40;29.00;;;;;;4993980;28;20073;-69
2022/07/12 11:49:32;;;;;;;1.75;1.05;;;26.60;29.30;;;;;;4994904;28;20503;-72
2022/07/12 11:51:58;;;;;;;3.90;1.52;;;27.10;29.80;;;;;;4994669;28;20018;-70
2022/07/12 11:54:27;;;;;;;3.28;1.48;;;27.40;28.40;;;;;;4994690;28;20031;-71
2022/07/12 11:57:25;;;;;;;1.45;1.00;;;27.60;28.70;;;;;;4993132;28;20290;-71
2022/07/12 11:59:51;;;;;;;0.90;0.80;;;27.90;27.70;;;;;;4982546;28;20539;-71
2022/07/12 12:02:17;;;;;;;2.20;0.60;;;28.20;27.30;;;;;;4994644;28;20113;-71
2022/07/12 12:04:51;;;;;;;1.55;0.70;;;28.30;27.00;;;;;;4993465;28;20026;-71
2022/07/12 12:07:18;;;;;;;0.60;0.40;;;28.40;27.40;;;;;;4994028;28;20102;-71
2022/07/12 12:10:02;;;;;;;1.45;0.57;;;28.50;26.30;;;;;;4994385;28;20049;-71
2022/07/12 12:12:51;;;;;;;2.33;1.30;;;27.90;26.50;;;;;;4978088;28;20093;-69
2022/07/12 12:15:28;;;;;;;4.18;0.73;;;27.70;27.70;;;;;;4975221;28;20716;-71
2022/07/12 12:18:05;;;;;;;3.55;0.65;;;27.60;27.70;;;;;;4974733;28;20078;-72
2022/07/12 12:20:31;;;;;;;1.27;0.88;;;27.70;28.00;;;;;;4974714;28;20034;-72
2022/07/12 12:23:18;;;;;;;2.88;0.68;;;27.90;27.90;;;;;;4974619;28;20027;-70
2022/07/12 12:25:49;;;;;;;6.43;0.82;;;28.00;27.00;;;;;;4974940;28;20499;-70
2022/07/12 12:28:15;;;;;;;5.72;0.63;;;27.20;27.40;;;;;;4974838;28;20049;-70
2022/07/12 12:30:55;;;;;;;6.97;0.90;;;26.50;28.60;;;;;;4974669;28;20481;-71
2022/07/12 12:33:56;;;;;;;1.67;0.65;;;26.00;29.70;;;;;;4974465;28;20031;-71
2022/07/12 12:36:25;;;;;;;2.00;1.10;;;26.30;28.80;;;;;;4973206;28;20030;-71
2022/07/12 12:38:56;;;;;;;2.90;0.65;;;26.90;29.30;;;;;;4974197;28;20031;-71
2022/07/12 12:41:26;;;;;;;4.72;1.05;;;27.30;28.30;;;;;;4974726;28;20028;-71
2022/07/12 12:44:03;;;;;;;1.77;0.68;;;;;;;;;;4975266;28;20110;-69
2022/07/12 12:46:53;;;;;;;4.82;0.63;;;27.70;27.00;;;;;;4974840;28;20105;-69
2022/07/12 12:49:18;;;;;;;1.35;0.20;;;27.80;27.40;;;;;;4974355;28;20030;-70
2022/07/12 12:51:52;;;;;;;2.08;0.80;;;27.50;26.80;;;;;;4974515;28;20128;-70
2022/07/12 12:54:34;;;;;;;4.47;0.90;;;27.30;27.30;;;;;;4974627;28;20023;-71
2022/07/12 12:57:00;;;;;;;6.10;1.10;;;27.30;27.50;;;;;;4974262;28;20349;-69
2022/07/12 12:59:25;;;;;;;2.38;0.68;;;27.20;27.10;;;;;;4974222;28;20033;-72
2022/07/12 13:01:51;;;;;;;1.45;0.63;;;27.40;27.90;;;;;;4974027;28;20075;-71
2022/07/12 13:04:16;;;;;;;1.98;0.98;;;27.40;27.10;;;;;;4974111;28;20015;-71
2022/07/12 13:06:42;;;;;;;2.50;0.40;;;27.40;27.60;;;;;;4973986;28;20381;-69
2022/07/12 13:09:07;;;;;;;2.20;0.65;;;27.20;27.40;;;;;;4973733;28;20085;-70
2022/07/12 13:11:33;;;;;;;2.85;0.60;;;27.10;28.10;;;;;;4974068;28;20019;-70
2022/07/12 13:14:00;;;;;;;1.63;0.50;;;27.00;27.70;;;;;;4974084;28;20489;-70
2022/07/12 13:16:26;;;;;;;1.73;0.70;;;26.80;28.00;;;;;;4973788;28;20026;-70
2022/07/12 13:18:51;;;;;;;3.60;1.15;;;26.60;28.70;;;;;;4973362;28;20460;-70
2022/07/12 13:21:17;;;;;;;2.08;0.95;;;26.60;28.80;;;;;;4973245;28;20031;-70
2022/07/12 13:23:43;;;;;;;2.35;0.80;;;26.60;29.30;;;;;;4973719;28;20023;-71
2022/07/12 13:26:09;;;;;;;1.65;0.47;;;26.60;28.90;;;;;;4973654;28;20027;-70